createdAt,value
2022-10-20T00:01:58.477Z,101974.31
2022-10-20T00:04:55.353Z,101960.94
2022-10-20T00:07:52.202Z,101963.38
2022-10-20T00:10:56.142Z,101965.44
2022-10-20T00:13:54.023Z,101966.28
2022-10-20T00:16:51.172Z,101971.47
2022-10-20T00:19:48.769Z,101960.63
2022-10-20T00:22:46.605Z,101940.22
2022-10-20T00:25:43.345Z,101938.84
2022-10-20T00:28:40.553Z,101930.72
2022-10-20T00:31:37.606Z,101933.13
2022-10-20T00:34:34.440Z,101934.59
2022-10-20T00:37:31.218Z,101929.50
2022-10-20T00:40:28.894Z,101912.91
2022-10-20T00:43:52.370Z,101931.16
2022-10-20T00:46:49.499Z,101920.75
2022-10-20T00:49:46.929Z,101904.25
2022-10-20T00:52:44.637Z,101907.38
2022-10-20T00:55:41.892Z,101904.84
2022-10-20T00:58:39.149Z,101903.59
2022-10-20T01:01:36.178Z,101899.13
2022-10-20T01:04:33.457Z,101897.78
2022-10-20T01:07:30.173Z,101877.28
2022-10-20T01:10:27.086Z,101876.22
2022-10-20T01:14:02.643Z,101872.50
2022-10-20T01:17:43.914Z,101862.94
2022-10-20T01:21:04.518Z,101869.19
2022-10-20T01:24:34.072Z,101865.66
2022-10-20T01:27:38.734Z,101854.91
2022-10-20T01:30:37.659Z,101866.78
2022-10-20T01:33:44.627Z,101853.97
2022-10-20T01:36:49.302Z,101852.19
2022-10-20T01:39:48.520Z,101842.72
2022-10-20T01:42:45.151Z,101839.91
2022-10-20T01:45:44.359Z,101842.50
2022-10-20T01:48:41.445Z,101828.75
2022-10-20T01:51:38.431Z,101833.63
2022-10-20T01:54:35.240Z,101832.72
2022-10-20T01:57:47.739Z,101829.91
2022-10-20T02:00:45.316Z,101824.59
2022-10-20T02:03:58.179Z,101822.38
2022-10-20T02:07:01.744Z,101823.88
2022-10-20T02:10:12.219Z,101821.47
2022-10-20T02:13:09.449Z,101806.50
2022-10-20T02:16:13.122Z,101815.03
2022-10-20T02:19:10.650Z,101803.00
2022-10-20T02:22:08.380Z,101802.09
2022-10-20T02:25:05.489Z,101798.75
2022-10-20T02:28:02.456Z,101786.66
2022-10-20T02:30:59.333Z,101792.09
2022-10-20T02:33:56.426Z,101786.28
2022-10-20T02:36:56.257Z,101793.84
2022-10-20T02:39:53.608Z,101791.78
2022-10-20T02:42:50.631Z,101793.06
2022-10-20T02:45:47.517Z,101792.44
2022-10-20T02:48:44.304Z,101793.28
2022-10-20T02:51:41.684Z,101781.09
2022-10-20T02:54:38.705Z,101770.78
2022-10-20T02:57:35.725Z,101777.97
2022-10-20T03:00:33.367Z,101769.97
2022-10-20T03:03:30.361Z,101766.06
2022-10-20T03:06:27.357Z,101765.13
2022-10-20T03:09:24.425Z,101767.53
2022-10-20T03:12:21.427Z,101760.97
2022-10-20T03:15:18.497Z,101761.19
2022-10-20T03:18:15.377Z,101749.94
2022-10-20T03:21:12.573Z,101748.28
2022-10-20T03:24:09.477Z,101738.81
2022-10-20T03:27:06.645Z,101717.16
2022-10-20T03:30:03.991Z,101720.38
2022-10-20T03:33:01.341Z,101724.22
2022-10-20T03:35:58.734Z,101708.69
2022-10-20T03:38:55.385Z,101702.38
2022-10-20T03:41:52.175Z,101690.41
2022-10-20T03:44:49.233Z,101687.81
2022-10-20T03:47:46.693Z,101678.56
2022-10-20T03:50:43.349Z,101670.88
2022-10-20T03:53:40.565Z,101659.13
2022-10-20T03:56:37.482Z,101661.28
2022-10-20T03:59:34.213Z,101667.44
2022-10-20T04:02:34.231Z,101660.47
2022-10-20T04:05:31.515Z,101661.81
2022-10-20T04:08:28.458Z,101650.38
2022-10-20T04:11:26.976Z,101651.09
2022-10-20T04:14:24.261Z,101654.13
2022-10-20T04:17:21.550Z,101639.47
2022-10-20T04:20:18.495Z,101636.25
2022-10-20T04:23:15.431Z,101634.69
2022-10-20T04:26:13.211Z,101636.03
2022-10-20T04:29:10.683Z,101641.13
2022-10-20T04:32:07.393Z,101637.06
2022-10-20T04:35:05.255Z,101628.13
2022-10-20T04:38:02.892Z,101626.13
2022-10-20T04:41:03.362Z,101610.28
2022-10-20T04:44:01.512Z,101613.28
2022-10-20T04:46:58.746Z,101586.16
2022-10-20T04:49:55.714Z,101585.97
2022-10-20T04:52:52.810Z,101581.69
2022-10-20T04:55:56.602Z,101577.78
2022-10-20T04:58:57.166Z,101576.75
2022-10-20T05:01:54.827Z,101578.63
2022-10-20T05:04:51.871Z,101575.50
2022-10-20T05:07:48.229Z,101567.56
2022-10-20T05:10:45.790Z,101568.19
2022-10-20T05:13:42.960Z,101554.41
2022-10-20T05:16:39.284Z,101555.13
2022-10-20T05:19:36.626Z,101547.88
2022-10-20T05:22:33.997Z,101552.47
2022-10-20T05:25:36.551Z,101531.06
2022-10-20T05:28:33.501Z,101525.47
2022-10-20T05:31:30.300Z,101526.25
2022-10-20T05:34:27.813Z,101529.66
2022-10-20T05:37:27.216Z,101529.06
2022-10-20T05:40:24.583Z,101533.22
2022-10-20T05:43:21.586Z,101532.63
2022-10-20T05:46:19.119Z,101519.63
2022-10-20T05:49:17.555Z,101518.72
2022-10-20T05:52:14.438Z,101505.38
2022-10-20T05:55:11.862Z,101506.63
2022-10-20T05:58:08.613Z,101514.88
2022-10-20T06:01:08.968Z,101510.03
2022-10-20T06:04:06.333Z,101513.56
2022-10-20T06:07:05.876Z,101503.72
2022-10-20T06:10:03.980Z,101495.06
2022-10-20T06:13:01.718Z,101491.25
2022-10-20T06:16:12.167Z,101481.03
2022-10-20T06:19:10.223Z,101486.41
2022-10-20T06:22:07.683Z,101471.75
2022-10-20T06:25:05.074Z,101474.41
2022-10-20T06:28:02.429Z,101478.38
2022-10-20T06:30:59.904Z,101486.78
2022-10-20T06:33:57.075Z,101476.00
2022-10-20T06:36:54.430Z,101471.34
2022-10-20T06:39:51.831Z,101461.81
2022-10-20T06:42:48.698Z,101453.16
2022-10-20T06:45:57.101Z,101446.50
2022-10-20T06:48:58.572Z,101450.34
2022-10-20T06:51:56.383Z,101435.59
2022-10-20T06:54:53.699Z,101432.34
2022-10-20T06:57:50.531Z,101430.53
2022-10-20T07:00:47.423Z,101431.84
2022-10-20T07:03:46.026Z,101434.19
2022-10-20T07:06:43.828Z,101432.41
2022-10-20T07:09:40.552Z,101431.38
2022-10-20T07:12:38.269Z,101439.22
2022-10-20T07:15:35.941Z,101425.81
2022-10-20T07:18:32.947Z,101425.81
2022-10-20T07:21:34.651Z,101439.41
2022-10-20T07:24:34.854Z,101441.34
2022-10-20T07:27:31.866Z,101446.09
2022-10-20T07:30:28.801Z,101451.81
2022-10-20T07:33:25.703Z,101455.69
2022-10-20T07:36:34.831Z,101458.28
2022-10-20T07:39:32.787Z,101451.25
2022-10-20T07:42:29.647Z,101450.34
2022-10-20T07:45:26.495Z,101438.19
2022-10-20T07:48:23.386Z,101427.44
2022-10-20T07:51:26.957Z,101420.97
2022-10-20T07:54:23.609Z,101414.66
2022-10-20T07:57:20.554Z,101413.19
2022-10-20T08:00:17.910Z,101420.19
2022-10-20T08:03:14.871Z,101423.97
2022-10-20T08:06:11.764Z,101419.53
2022-10-20T08:09:08.808Z,101417.06
2022-10-20T08:12:06.018Z,101400.66
2022-10-20T08:15:05.764Z,101420.03
2022-10-20T08:18:02.569Z,101422.19
2022-10-20T08:21:09.533Z,101417.22
2022-10-20T08:24:06.607Z,101417.75
2022-10-20T08:27:03.718Z,101411.28
2022-10-20T08:30:22.387Z,101406.94
2022-10-20T08:33:17.824Z,101401.47
2022-10-20T08:36:14.984Z,101401.66
2022-10-20T08:39:11.526Z,101383.59
2022-10-20T08:42:09.816Z,101387.72
2022-10-20T08:45:07.229Z,101400.50
2022-10-20T08:48:04.548Z,101386.41
2022-10-20T08:51:02.104Z,101381.09
2022-10-20T08:54:00.151Z,101373.78
2022-10-20T08:56:58.850Z,101377.25
2022-10-20T09:00:04.712Z,101392.34
2022-10-20T09:03:27.765Z,101382.41
2022-10-20T09:06:24.866Z,101377.72
2022-10-20T09:09:22.106Z,101367.94
2022-10-20T09:12:18.869Z,101374.38
2022-10-20T09:15:16.996Z,101364.38
2022-10-20T09:18:14.129Z,101369.59
2022-10-20T09:21:16.842Z,101346.03
2022-10-20T09:24:14.174Z,101360.91
2022-10-20T09:27:40.056Z,101340.13
2022-10-20T09:30:36.770Z,101350.75
2022-10-20T09:33:34.850Z,101336.53
2022-10-20T09:36:34.013Z,101334.84
2022-10-20T09:39:34.722Z,101340.09
2022-10-20T09:42:35.611Z,101330.19
2022-10-20T09:45:33.105Z,101328.59
2022-10-20T09:48:34.851Z,101323.16
2022-10-20T09:51:32.214Z,101318.75
2022-10-20T09:54:30.164Z,101316.69
2022-10-20T09:57:28.107Z,101309.34
2022-10-20T10:00:37.668Z,101303.03
2022-10-20T10:03:40.593Z,101284.00
2022-10-20T10:06:37.851Z,101286.97
2022-10-20T10:09:36.706Z,101284.25
2022-10-20T10:12:34.926Z,101281.06
2022-10-20T10:15:42.981Z,101281.94
2022-10-20T10:18:39.619Z,101279.66
2022-10-20T10:21:47.868Z,101278.28
2022-10-20T10:24:48.318Z,101273.44
2022-10-20T10:28:08.833Z,101272.72
2022-10-20T10:31:05.824Z,101270.22
2022-10-20T10:34:40.947Z,101264.78
2022-10-20T10:37:39.133Z,101254.34
2022-10-20T10:40:44.998Z,101248.44
2022-10-20T10:44:05.259Z,101248.19
2022-10-20T10:47:27.452Z,101237.16
2022-10-20T10:50:48.261Z,101228.91
2022-10-20T10:53:57.707Z,101216.31
2022-10-20T10:56:56.899Z,101214.84
2022-10-20T10:59:53.734Z,101208.97
2022-10-20T11:03:03.399Z,101195.41
2022-10-20T11:06:10.322Z,101193.19
2022-10-20T11:09:28.244Z,101196.69
2022-10-20T11:12:28.746Z,101191.19
2022-10-20T11:15:43.799Z,101194.28
2022-10-20T11:19:15.576Z,101192.03
2022-10-20T11:22:21.989Z,101188.00
2022-10-20T11:25:23.683Z,101180.84
2022-10-20T11:28:44.506Z,101174.75
2022-10-20T11:31:50.434Z,101172.69
2022-10-20T11:35:19.778Z,101173.50
2022-10-20T11:38:41.826Z,101170.25
2022-10-20T11:41:43.113Z,101189.31
2022-10-20T11:44:42.885Z,101187.00
2022-10-20T11:47:41.230Z,101183.84
2022-10-20T11:50:38.569Z,101186.16
2022-10-20T11:53:59.366Z,101175.72
2022-10-20T11:57:17.365Z,101183.91
2022-10-20T12:04:07.684Z,101155.47
2022-10-20T12:07:20.263Z,101163.06
2022-10-20T12:10:50.198Z,101146.59
2022-10-20T12:14:18.116Z,101155.94
2022-10-20T12:17:44.042Z,101155.88
2022-10-20T12:20:47.769Z,101147.88
2022-10-20T12:23:45.383Z,101149.88
2022-10-20T12:27:08.209Z,101145.25
2022-10-20T12:30:11.531Z,101126.56
2022-10-20T12:33:11.484Z,101134.97
2022-10-20T12:36:36.815Z,101140.16
2022-10-20T12:39:33.909Z,101142.63
2022-10-20T12:42:31.973Z,101130.06
2022-10-20T12:45:36.590Z,101134.94
2022-10-20T12:48:34.637Z,101131.06
2022-10-20T12:51:47.145Z,101131.88
2022-10-20T12:54:48.486Z,101128.97
2022-10-20T12:57:46.117Z,101119.63
2022-10-20T13:00:51.807Z,101123.53
2022-10-20T13:03:49.223Z,101126.94
2022-10-20T13:06:46.235Z,101119.88
2022-10-20T13:09:57.980Z,101123.88
2022-10-20T13:13:03.645Z,101115.28
2022-10-20T13:16:01.189Z,101115.28
2022-10-20T13:18:58.005Z,101122.94
2022-10-20T13:21:55.003Z,101109.22
2022-10-20T13:24:55.932Z,101093.69
2022-10-20T13:28:02.998Z,101096.69
2022-10-20T13:31:11.072Z,101102.22
2022-10-20T13:34:34.050Z,101123.22
2022-10-20T13:37:43.187Z,101118.41
2022-10-20T13:40:43.288Z,101118.25
2022-10-20T13:44:04.359Z,101109.53
2022-10-20T13:47:20.802Z,101112.81
2022-10-20T13:50:27.465Z,101106.13
2022-10-20T13:53:40.022Z,101113.72
2022-10-20T13:56:38.350Z,101108.34
2022-10-20T13:59:34.922Z,101113.50
2022-10-20T14:02:34.495Z,101111.63
2022-10-20T14:05:38.955Z,101120.22
2022-10-20T14:08:43.525Z,101128.84
2022-10-20T14:11:40.835Z,101133.44
2022-10-20T14:14:41.394Z,101132.44
2022-10-20T14:17:40.906Z,101132.16
2022-10-20T14:20:38.659Z,101130.69
2022-10-20T14:23:37.711Z,101123.84
2022-10-20T14:26:34.852Z,101125.63
2022-10-20T14:29:37.917Z,101120.81
2022-10-20T14:32:39.158Z,101110.00
2022-10-20T14:35:40.902Z,101107.22
2022-10-20T14:38:39.066Z,101094.41
2022-10-20T14:41:36.170Z,101080.97
2022-10-20T14:44:32.826Z,101080.72
2022-10-20T14:47:34.170Z,101080.38
2022-10-20T14:50:31.007Z,101097.41
2022-10-20T14:53:30.650Z,101089.91
2022-10-20T14:56:27.853Z,101086.22
2022-10-20T14:59:32.928Z,101087.16
2022-10-20T15:02:40.132Z,101063.78
2022-10-20T15:05:41.477Z,101063.34
2022-10-20T15:08:39.102Z,101062.47
2022-10-20T15:11:35.938Z,101071.97
2022-10-20T15:14:33.052Z,101060.53
2022-10-20T15:17:31.690Z,101055.88
2022-10-20T15:20:34.465Z,101061.19
2022-10-20T15:23:32.463Z,101044.38
2022-10-20T15:26:30.731Z,101027.44
2022-10-20T15:29:28.061Z,101030.28
2022-10-20T15:32:25.047Z,101025.00
2022-10-20T15:35:24.015Z,101023.69
2022-10-20T15:38:21.279Z,101030.31
2022-10-20T15:41:19.871Z,101036.81
2022-10-20T15:44:19.633Z,101017.25
2022-10-20T15:47:17.450Z,101003.25
2022-10-20T15:50:15.549Z,101005.25
2022-10-20T15:53:13.291Z,101005.44
2022-10-20T15:56:09.721Z,100991.09
2022-10-20T15:59:06.841Z,100978.47
2022-10-20T16:02:04.119Z,100973.09
2022-10-20T16:05:00.837Z,100982.41
2022-10-20T16:07:58.247Z,100989.09
2022-10-20T16:10:56.208Z,100973.81
2022-10-20T16:13:53.247Z,100981.56
2022-10-20T16:16:49.866Z,100975.81
2022-10-20T16:19:47.372Z,100978.47
2022-10-20T16:22:44.097Z,100974.84
2022-10-20T16:25:41.085Z,100972.72
2022-10-20T16:28:38.389Z,100975.28
2022-10-20T16:31:35.405Z,100969.72
2022-10-20T16:34:33.038Z,100959.81
2022-10-20T16:37:30.809Z,100951.41
2022-10-20T16:40:28.051Z,100941.09
2022-10-20T16:43:25.102Z,100943.09
2022-10-20T16:46:22.912Z,100944.66
2022-10-20T16:49:20.081Z,100944.81
2022-10-20T16:52:17.425Z,100950.31
2022-10-20T16:55:13.988Z,100959.28
2022-10-20T16:58:10.755Z,100969.16
2022-10-20T17:01:10.896Z,100968.53
2022-10-20T17:04:08.105Z,100962.03
2022-10-20T17:07:05.738Z,100954.38
2022-10-20T17:10:02.931Z,100951.53
2022-10-20T17:12:59.887Z,100941.41
2022-10-20T17:15:57.155Z,100940.00
2022-10-20T17:18:54.550Z,100944.31
2022-10-20T17:21:55.966Z,100944.50
2022-10-20T17:24:53.087Z,100955.47
2022-10-20T17:27:50.184Z,100960.13
2022-10-20T17:30:47.669Z,100942.28
2022-10-20T17:33:45.222Z,100931.72
2022-10-20T17:36:43.566Z,100916.38
2022-10-20T17:39:41.294Z,100916.72
2022-10-20T17:42:38.457Z,100918.56
2022-10-20T17:45:38.098Z,100921.50
2022-10-20T17:48:35.424Z,100931.88
2022-10-20T17:51:34.640Z,100913.59
2022-10-20T17:54:32.102Z,100917.25
2022-10-20T17:57:32.209Z,100906.75
2022-10-20T18:00:44.240Z,100905.09
2022-10-20T18:03:47.141Z,100914.97
2022-10-20T18:06:44.150Z,100924.31
2022-10-20T18:09:41.339Z,100923.03
2022-10-20T18:12:38.785Z,100917.34
2022-10-20T18:15:41.764Z,100916.38
2022-10-20T18:18:39.516Z,100906.31
2022-10-20T18:21:37.517Z,100903.47
2022-10-20T18:24:34.011Z,100907.88
2022-10-20T18:27:31.287Z,100905.09
2022-10-20T18:30:28.502Z,100906.31
2022-10-20T18:33:25.890Z,100900.72
2022-10-20T18:36:24.148Z,100899.44
2022-10-20T18:39:21.122Z,100900.81
2022-10-20T18:42:18.218Z,100897.06
2022-10-20T18:45:15.760Z,100908.31
2022-10-20T18:48:13.416Z,100905.94
2022-10-20T18:51:10.880Z,100900.00
2022-10-20T18:54:08.445Z,100906.84
2022-10-20T18:57:05.414Z,100897.06
2022-10-20T19:00:03.370Z,100899.19
2022-10-20T19:03:01.705Z,100890.84
2022-10-20T19:06:28.994Z,100900.47
2022-10-20T19:09:26.454Z,100888.47
2022-10-20T19:12:23.394Z,100886.78
2022-10-20T19:15:20.629Z,100879.81
2022-10-20T19:18:18.106Z,100883.63
2022-10-20T19:21:15.462Z,100885.25
2022-10-20T19:24:19.178Z,100877.28
2022-10-20T19:27:31.866Z,100877.44
2022-10-20T19:30:34.188Z,100874.22
2022-10-20T19:33:31.158Z,100874.53
2022-10-20T19:36:28.285Z,100865.94
2022-10-20T19:39:37.152Z,100861.09
2022-10-20T19:42:34.549Z,100857.13
2022-10-20T19:45:32.565Z,100856.91
2022-10-20T19:48:29.129Z,100852.44
2022-10-20T19:51:26.058Z,100849.31
2022-10-20T19:54:23.657Z,100846.25
2022-10-20T19:57:21.074Z,100835.81
2022-10-20T20:00:18.687Z,100830.78
2022-10-20T20:03:16.412Z,100830.91
2022-10-20T20:06:17.804Z,100821.22
2022-10-20T20:09:18.578Z,100818.28
2022-10-20T20:12:15.689Z,100808.16
2022-10-20T20:15:13.320Z,100817.03
2022-10-20T20:18:12.122Z,100814.66
2022-10-20T20:21:09.837Z,100817.66
2022-10-20T20:24:07.292Z,100820.38
2022-10-20T20:27:04.374Z,100816.75
2022-10-20T20:30:03.407Z,100817.28
2022-10-20T20:33:01.444Z,100817.38
2022-10-20T20:35:58.913Z,100819.50
2022-10-20T20:38:58.072Z,100813.53
2022-10-20T20:41:55.441Z,100806.00
2022-10-20T20:44:53.097Z,100802.00
2022-10-20T20:47:50.200Z,100801.84
2022-10-20T20:50:56.615Z,100804.78
2022-10-20T20:53:53.353Z,100800.66
2022-10-20T20:56:50.499Z,100807.78
2022-10-20T20:59:47.796Z,100806.34
2022-10-20T21:02:45.819Z,100806.03
2022-10-20T21:05:43.880Z,100809.16
2022-10-20T21:08:42.377Z,100814.53
2022-10-20T21:11:39.474Z,100810.38
2022-10-20T21:14:36.416Z,100811.22
2022-10-20T21:17:33.345Z,100804.63
2022-10-20T21:20:30.344Z,100810.50
2022-10-20T21:23:27.583Z,100802.28
2022-10-20T21:26:24.585Z,100802.41
2022-10-20T21:29:21.569Z,100810.56
2022-10-20T21:32:19.129Z,100809.28
2022-10-20T21:35:16.131Z,100813.78
2022-10-20T21:38:13.488Z,100813.84
2022-10-20T21:41:12.006Z,100811.50
2022-10-20T21:44:09.225Z,100803.63
2022-10-20T21:47:07.536Z,100804.63
2022-10-20T21:50:04.711Z,100809.44
2022-10-20T21:53:02.457Z,100809.53
2022-10-20T21:55:59.011Z,100806.63
2022-10-20T21:58:56.146Z,100808.03
2022-10-20T22:01:54.675Z,100799.88
2022-10-20T22:04:51.277Z,100800.88
2022-10-20T22:07:48.073Z,100795.97
2022-10-20T22:10:45.264Z,100792.19
2022-10-20T22:13:42.439Z,100786.63
2022-10-20T22:16:40.349Z,100788.78
2022-10-20T22:19:37.231Z,100778.06
2022-10-20T22:22:34.370Z,100786.13
2022-10-20T22:25:31.165Z,100777.38
2022-10-20T22:28:28.732Z,100781.34
2022-10-20T22:31:26.237Z,100785.66
2022-10-20T22:34:22.901Z,100784.25
2022-10-20T22:37:20.553Z,100784.47
2022-10-20T22:40:17.540Z,100776.34
2022-10-20T22:43:14.400Z,100776.66
2022-10-20T22:46:11.400Z,100786.94
2022-10-20T22:49:08.508Z,100778.47
2022-10-20T22:52:05.316Z,100775.63
2022-10-20T22:55:02.252Z,100759.84
2022-10-20T22:57:59.770Z,100761.84
2022-10-20T23:00:57.441Z,100765.44
2022-10-20T23:03:54.429Z,100758.91
2022-10-20T23:06:51.345Z,100754.47
2022-10-20T23:09:48.125Z,100755.09
2022-10-20T23:12:45.666Z,100749.94
2022-10-20T23:15:49.989Z,100745.78
2022-10-20T23:18:47.626Z,100749.94
2022-10-20T23:21:44.397Z,100741.19
2022-10-20T23:24:41.285Z,100741.84
2022-10-20T23:27:39.224Z,100736.50
2022-10-20T23:30:36.375Z,100730.19
2022-10-20T23:33:33.350Z,100733.00
2022-10-20T23:36:30.657Z,100737.41
2022-10-20T23:39:29.077Z,100738.50
2022-10-20T23:42:26.511Z,100743.38
2022-10-20T23:45:23.527Z,100737.78
2022-10-20T23:48:20.440Z,100732.34
2022-10-20T23:51:17.249Z,100733.63
2022-10-20T23:54:14.214Z,100723.19
2022-10-20T23:57:11.404Z,100723.69
